Time;durP1;ratioP1;P1;durP2;ratioP2;P2;SDS_P1;SDS_P2;PMS_P1;PMS_P2;Temp;Humidity;BMP_temperature;BMP_pressure;BME280_temperature;BME280_humidity;BME280_pressure;Samples;Min_cycle;Max_cycle;Signal;HPM_P1;HPM_P2
2024/01/24 00:00:36;;;;;;;2.80;1.92;;;8.10;99.90;;;;;;4993198;28;20094;-71
2024/01/24 00:03:02;;;;;;;2.95;1.65;;;8.10;99.90;;;;;;4992360;28;20069;-71
2024/01/24 00:05:28;;;;;;;3.67;1.90;;;8.10;99.90;;;;;;4992690;28;20061;-72
2024/01/24 00:07:53;;;;;;;2.10;1.13;;;8.10;99.90;;;;;;4998817;28;20053;-71
2024/01/24 00:10:18;;;;;;;3.75;1.60;;;8.20;99.90;;;;;;4994493;28;20087;-72
2024/01/24 00:12:44;;;;;;;4.00;2.10;;;8.30;99.90;;;;;;4999615;28;20370;-71
2024/01/24 00:15:10;;;;;;;3.17;1.70;;;8.40;99.90;;;;;;4993146;28;20038;-72
2024/01/24 00:17:35;;;;;;;3.30;1.95;;;8.40;99.90;;;;;;4989373;28;20101;-71
2024/01/24 00:20:01;;;;;;;2.90;1.80;;;8.40;99.90;;;;;;4991504;28;20146;-71
2024/01/24 00:22:27;;;;;;;4.13;2.33;;;8.50;99.90;;;;;;4998775;28;20026;-72
2024/01/24 00:24:53;;;;;;;2.58;1.70;;;8.60;99.90;;;;;;4996544;28;20108;-72
2024/01/24 00:27:19;;;;;;;3.63;2.28;;;8.60;99.90;;;;;;4993909;28;20111;-72
2024/01/24 00:29:44;;;;;;;3.83;1.92;;;8.70;99.90;;;;;;4993421;28;20022;-71
2024/01/24 00:32:10;;;;;;;4.72;2.15;;;8.70;99.90;;;;;;4999318;28;20034;-71
2024/01/24 00:34:35;;;;;;;3.70;2.15;;;8.80;99.90;;;;;;4999533;28;20037;-71
2024/01/24 00:37:01;;;;;;;4.32;2.08;;;8.90;99.90;;;;;;4991731;28;20030;-71
2024/01/24 00:39:26;;;;;;;4.40;2.55;;;8.90;99.90;;;;;;4998063;28;20034;-73
2024/01/24 00:41:53;;;;;;;4.97;2.20;;;8.90;99.90;;;;;;4997295;28;20502;-72
2024/01/24 00:44:18;;;;;;;4.55;2.40;;;8.90;99.90;;;;;;4998643;28;20041;-72
2024/01/24 00:46:43;;;;;;;3.85;2.00;;;8.90;99.90;;;;;;4996872;28;20038;-71
2024/01/24 00:49:10;;;;;;;3.45;2.20;;;9.00;99.90;;;;;;4997130;28;20030;-72
2024/01/24 00:51:36;;;;;;;4.65;2.20;;;9.00;99.90;;;;;;4997555;28;20050;-70
2024/01/24 00:54:02;;;;;;;2.92;1.77;;;9.10;99.90;;;;;;5018120;28;20059;-70
2024/01/24 00:56:27;;;;;;;4.00;1.95;;;9.20;99.90;;;;;;5001397;28;20494;-71
2024/01/24 00:58:53;;;;;;;4.05;1.83;;;9.10;99.90;;;;;;5000917;28;20461;-71
2024/01/24 01:01:19;;;;;;;3.17;1.98;;;9.20;99.90;;;;;;4998241;28;20041;-70
2024/01/24 01:03:45;;;;;;;3.33;1.60;;;9.20;99.90;;;;;;5003096;28;20473;-71
2024/01/24 01:06:10;;;;;;;2.28;1.60;;;9.30;99.90;;;;;;5004013;28;20034;-70
2024/01/24 01:08:36;;;;;;;2.20;1.58;;;9.30;99.90;;;;;;4998185;28;20204;-71
2024/01/24 01:11:01;;;;;;;3.72;2.13;;;9.50;99.90;;;;;;5004481;28;20042;-71
2024/01/24 01:13:27;;;;;;;2.92;1.70;;;9.50;99.90;;;;;;5003238;28;20121;-71
2024/01/24 01:15:52;;;;;;;3.28;1.73;;;9.50;99.90;;;;;;4991713;28;20066;-71
2024/01/24 01:18:18;;;;;;;2.90;1.58;;;9.50;99.90;;;;;;5005639;28;20134;-72
2024/01/24 01:20:43;;;;;;;2.13;1.23;;;9.60;99.90;;;;;;5006223;28;20081;-72
2024/01/24 01:23:09;;;;;;;3.55;1.95;;;9.60;99.90;;;;;;5003131;28;20034;-71
2024/01/24 01:25:34;;;;;;;3.03;1.58;;;9.60;99.90;;;;;;5002548;28;20029;-72
2024/01/24 01:28:00;;;;;;;3.25;1.90;;;9.60;99.90;;;;;;4998429;28;20133;-72
2024/01/24 01:30:25;;;;;;;2.90;1.35;;;9.60;99.90;;;;;;5004142;28;20045;-73
2024/01/24 01:32:51;;;;;;;2.75;1.45;;;9.70;99.90;;;;;;4996327;28;20050;-72
2024/01/24 01:35:16;;;;;;;2.20;1.23;;;9.70;99.90;;;;;;5004875;28;20065;-72
2024/01/24 01:37:42;;;;;;;2.92;1.33;;;9.70;99.90;;;;;;5002262;28;20038;-72
2024/01/24 01:40:08;;;;;;;2.88;1.50;;;9.80;99.90;;;;;;5008643;28;20069;-72
2024/01/24 01:42:34;;;;;;;1.80;1.30;;;9.80;99.90;;;;;;5018854;28;20038;-71
2024/01/24 01:44:59;;;;;;;2.20;1.45;;;9.90;99.90;;;;;;4994205;28;20042;-72
2024/01/24 01:47:25;;;;;;;2.30;1.20;;;9.90;99.90;;;;;;5017144;28;20034;-72
2024/01/24 01:49:51;;;;;;;2.75;1.20;;;9.90;99.90;;;;;;5005725;28;20426;-72
2024/01/24 01:52:18;;;;;;;1.75;0.88;;;10.00;99.90;;;;;;5001774;28;20156;-72
2024/01/24 01:54:44;;;;;;;1.50;1.20;;;10.00;99.90;;;;;;5007194;28;20068;-72
2024/01/24 01:57:11;;;;;;;2.05;1.25;;;9.90;99.90;;;;;;4999182;28;20458;-72
2024/01/24 01:59:40;;;;;;;2.42;1.17;;;10.00;99.90;;;;;;5005077;28;20132;-72
2024/01/24 02:02:06;;;;;;;1.88;1.00;;;10.00;99.90;;;;;;5003784;28;20034;-72
2024/01/24 02:04:32;;;;;;;1.77;1.20;;;10.10;99.90;;;;;;5007520;28;20117;-73
2024/01/24 02:06:57;;;;;;;1.38;0.98;;;10.10;99.90;;;;;;5001891;28;20176;-72
2024/01/24 02:09:23;;;;;;;2.00;1.15;;;10.00;99.90;;;;;;5008832;28;20053;-72
2024/01/24 02:11:49;;;;;;;1.52;0.95;;;10.10;99.90;;;;;;5003396;28;20030;-73
2024/01/24 02:14:14;;;;;;;3.17;1.83;;;10.10;99.90;;;;;;5004357;28;20033;-73
2024/01/24 02:16:40;;;;;;;1.73;1.05;;;10.20;99.90;;;;;;5004178;28;20474;-72
2024/01/24 02:19:06;;;;;;;1.77;1.35;;;10.20;99.90;;;;;;5005689;28;20034;-73
2024/01/24 02:21:32;;;;;;;1.75;1.08;;;10.30;99.90;;;;;;5001438;28;20121;-72
2024/01/24 02:23:59;;;;;;;1.67;0.77;;;10.30;99.90;;;;;;5002616;28;20367;-72
2024/01/24 02:26:25;;;;;;;2.88;1.48;;;10.30;99.90;;;;;;4998498;28;20451;-72
2024/01/24 02:28:50;;;;;;;2.08;0.88;;;10.30;99.90;;;;;;4999129;28;20108;-72
2024/01/24 02:31:16;;;;;;;1.50;1.00;;;10.40;99.90;;;;;;4994898;28;20439;-73
2024/01/24 02:33:41;;;;;;;2.33;1.30;;;10.40;99.90;;;;;;4997407;28;20034;-72
2024/01/24 02:36:07;;;;;;;2.00;1.00;;;10.40;99.90;;;;;;4990474;28;20034;-72
2024/01/24 02:38:32;;;;;;;1.85;1.05;;;10.40;99.90;;;;;;4996512;28;20124;-73
2024/01/24 02:40:58;;;;;;;2.38;1.10;;;10.40;99.90;;;;;;4998157;28;20040;-73
2024/01/24 02:43:23;;;;;;;2.10;0.95;;;10.50;99.90;;;;;;5011960;28;20045;-73
2024/01/24 02:45:49;;;;;;;1.95;1.30;;;10.40;99.90;;;;;;4994904;28;20435;-73
2024/01/24 02:48:14;;;;;;;1.77;0.93;;;10.50;99.90;;;;;;5005587;28;20040;-72
2024/01/24 02:50:40;;;;;;;1.38;0.95;;;10.50;99.90;;;;;;4993497;28;20026;-73
2024/01/24 02:53:06;;;;;;;1.83;1.17;;;10.50;99.90;;;;;;4999381;28;20108;-73
2024/01/24 02:55:31;;;;;;;1.05;0.68;;;10.50;99.90;;;;;;5007689;28;20269;-72
2024/01/24 02:57:57;;;;;;;1.52;1.10;;;10.50;99.90;;;;;;4998654;28;20078;-72
2024/01/24 03:00:22;;;;;;;1.77;1.00;;;10.50;99.90;;;;;;4995427;28;20033;-73
2024/01/24 03:02:48;;;;;;;1.35;0.77;;;10.60;99.90;;;;;;5001688;28;20118;-73
2024/01/24 03:05:13;;;;;;;1.73;0.90;;;10.60;99.90;;;;;;5004083;28;20033;-74
2024/01/24 03:07:40;;;;;;;1.55;0.90;;;10.60;99.90;;;;;;5002133;28;20048;-74
2024/01/24 03:10:08;;;;;;;1.15;0.90;;;10.70;99.90;;;;;;4998611;28;20436;-72
2024/01/24 03:12:33;;;;;;;1.38;0.82;;;10.70;99.90;;;;;;4999831;28;20101;-74
2024/01/24 03:14:59;;;;;;;1.30;0.70;;;10.90;99.90;;;;;;5000696;28;20061;-72
2024/01/24 03:17:25;;;;;;;1.80;1.00;;;10.90;99.90;;;;;;4999542;28;20045;-74
2024/01/24 03:19:50;;;;;;;1.40;0.90;;;11.00;99.90;;;;;;5001481;28;20041;-73
2024/01/24 03:22:16;;;;;;;1.05;0.68;;;11.00;99.90;;;;;;4998626;28;20030;-72
2024/01/24 03:24:41;;;;;;;1.27;0.68;;;11.10;99.90;;;;;;5004118;28;20185;-72
2024/01/24 03:27:07;;;;;;;1.00;0.63;;;11.20;99.70;;;;;;4998618;28;20053;-73
2024/01/24 03:29:32;;;;;;;0.65;0.50;;;11.20;99.50;;;;;;5005653;28;20462;-74
2024/01/24 03:31:58;;;;;;;1.08;0.63;;;11.10;99.30;;;;;;4995048;28;20146;-73
2024/01/24 03:34:24;;;;;;;1.08;0.45;;;11.10;99.00;;;;;;4997859;28;20469;-73
2024/01/24 03:36:50;;;;;;;0.57;0.43;;;11.30;97.80;;;;;;4998012;28;20042;-72
2024/01/24 03:39:16;;;;;;;1.33;0.50;;;11.30;97.70;;;;;;4999331;28;20038;-72
2024/01/24 03:41:41;;;;;;;0.30;0.30;;;11.30;97.30;;;;;;4995243;28;20041;-73
2024/01/24 03:44:07;;;;;;;0.40;0.40;;;11.20;97.30;;;;;;5000166;28;20073;-73
2024/01/24 03:46:32;;;;;;;0.47;0.40;;;11.30;96.70;;;;;;4995157;28;20046;-74
2024/01/24 03:48:58;;;;;;;0.20;0.20;;;11.30;96.50;;;;;;4996634;28;20121;-72
2024/01/24 03:51:24;;;;;;;0.50;0.32;;;11.30;96.30;;;;;;4993319;28;20034;-73
2024/01/24 03:53:49;;;;;;;0.30;0.30;;;11.30;96.40;;;;;;5025202;28;20046;-73
2024/01/24 03:56:15;;;;;;;0.30;0.30;;;11.30;96.20;;;;;;4994891;28;20041;-73
2024/01/24 03:58:41;;;;;;;1.10;0.50;;;11.30;96.00;;;;;;4994712;28;20105;-73
2024/01/24 04:01:06;;;;;;;0.63;0.50;;;11.30;96.10;;;;;;4998887;28;20033;-72
2024/01/24 04:03:32;;;;;;;0.30;0.30;;;11.20;96.30;;;;;;5000272;28;20096;-72
2024/01/24 04:05:57;;;;;;;0.50;0.35;;;11.40;95.30;;;;;;4998179;28;20086;-73
2024/01/24 04:08:23;;;;;;;0.28;0.28;;;11.30;95.20;;;;;;4996151;28;20053;-73
2024/01/24 04:10:48;;;;;;;0.20;0.20;;;11.20;95.50;;;;;;4999934;28;20402;-74
2024/01/24 04:13:14;;;;;;;0.20;0.20;;;11.10;95.50;;;;;;4999315;28;20092;-73
2024/01/24 04:15:41;;;;;;;0.98;0.45;;;11.20;94.90;;;;;;5000973;28;20118;-72
2024/01/24 04:18:06;;;;;;;0.20;0.20;;;11.20;94.70;;;;;;5001283;28;20153;-73
2024/01/24 04:20:32;;;;;;;0.32;0.30;;;11.20;94.50;;;;;;5006445;28;20152;-72
2024/01/24 04:22:58;;;;;;;1.20;0.40;;;11.20;94.30;;;;;;4989296;28;20054;-73
2024/01/24 04:25:23;;;;;;;0.35;0.20;;;11.30;93.10;;;;;;4987243;28;20474;-73
2024/01/24 04:27:49;;;;;;;0.63;0.25;;;11.20;93.10;;;;;;4993791;28;20116;-73
2024/01/24 04:30:15;;;;;;;0.25;0.25;;;11.20;93.20;;;;;;4998140;28;20038;-73
2024/01/24 04:32:40;;;;;;;2.25;0.43;;;11.30;92.20;;;;;;4991440;28;20325;-74
2024/01/24 04:35:06;;;;;;;0.88;0.28;;;11.30;91.70;;;;;;4999704;28;20094;-73
2024/01/24 04:37:32;;;;;;;1.23;0.50;;;11.20;91.60;;;;;;5001786;28;20516;-73
2024/01/24 04:39:57;;;;;;;0.80;0.15;;;11.40;89.20;;;;;;4999886;28;20139;-73
2024/01/24 04:42:23;;;;;;;1.77;0.40;;;11.40;88.90;;;;;;5014531;28;20083;-73
2024/01/24 04:44:48;;;;;;;4.72;0.85;;;11.30;88.60;;;;;;4996247;28;20042;-72
2024/01/24 04:47:14;;;;;;;3.05;0.68;;;11.30;87.70;;;;;;5000833;28;20030;-74
2024/01/24 04:49:40;;;;;;;6.13;1.15;;;11.40;87.30;;;;;;5001859;28;20498;-73
2024/01/24 04:52:05;;;;;;;1.95;0.40;;;11.30;86.60;;;;;;5006446;28;20126;-72
2024/01/24 04:54:34;;;;;;;1.85;0.47;;;11.10;87.50;;;;;;5000069;28;20034;-72
2024/01/24 04:57:04;;;;;;;2.58;0.85;;;11.20;86.70;;;;;;5016585;28;20124;-72
2024/01/24 04:59:29;;;;;;;3.28;0.60;;;11.10;86.30;;;;;;5005501;28;20110;-74
2024/01/24 05:01:55;;;;;;;5.28;1.17;;;11.10;86.80;;;;;;4997504;28;20404;-74
2024/01/24 05:04:20;;;;;;;3.17;0.85;;;11.20;85.90;;;;;;5003936;28;20164;-72
2024/01/24 05:06:46;;;;;;;4.75;0.90;;;11.10;86.70;;;;;;5005669;28;20026;-72
2024/01/24 05:09:12;;;;;;;3.72;0.65;;;11.00;87.10;;;;;;5002311;28;20045;-73
2024/01/24 05:11:41;;;;;;;3.90;0.90;;;11.00;86.90;;;;;;5006633;28;20026;-73
2024/01/24 05:14:06;;;;;;;3.38;0.98;;;11.10;86.40;;;;;;5002394;28;20129;-73
2024/01/24 05:16:32;;;;;;;2.13;0.68;;;11.00;86.80;;;;;;4999585;28;20121;-72
2024/01/24 05:18:58;;;;;;;2.33;0.60;;;11.10;86.20;;;;;;5007333;28;20466;-73
2024/01/24 05:21:23;;;;;;;3.72;0.95;;;11.10;86.40;;;;;;5007434;28;20141;-72
2024/01/24 05:23:51;;;;;;;3.28;1.10;;;10.90;86.90;;;;;;4999212;28;20108;-73
2024/01/24 05:26:17;;;;;;;2.90;1.15;;;11.10;86.30;;;;;;5001845;28;20038;-72
2024/01/24 05:28:42;;;;;;;0.38;0.30;;;11.00;86.90;;;;;;5016263;28;20044;-72
2024/01/24 05:31:07;;;;;;;3.50;0.70;;;11.00;86.90;;;;;;5000672;28;20120;-72
2024/01/24 05:33:33;;;;;;;2.05;0.98;;;10.80;87.70;;;;;;5011815;28;20462;-72
2024/01/24 05:35:59;;;;;;;4.28;1.67;;;10.80;88.30;;;;;;5003966;28;20121;-73
2024/01/24 05:38:24;;;;;;;2.90;0.82;;;10.60;90.00;;;;;;4997767;28;20044;-72
2024/01/24 05:40:50;;;;;;;4.63;1.10;;;10.40;91.50;;;;;;5008348;28;20062;-72
2024/01/24 05:43:15;;;;;;;4.15;1.17;;;10.40;91.70;;;;;;5009926;28;20133;-72
2024/01/24 05:45:41;;;;;;;3.88;1.05;;;10.30;92.00;;;;;;5001037;28;20128;-73
2024/01/24 05:48:06;;;;;;;3.97;1.00;;;10.10;92.60;;;;;;5007323;28;20030;-72
2024/01/24 05:50:32;;;;;;;4.05;1.13;;;10.10;93.20;;;;;;5002469;28;20099;-74
2024/01/24 05:52:58;;;;;;;3.92;0.95;;;9.80;94.40;;;;;;4993860;28;20054;-72
2024/01/24 05:55:24;;;;;;;3.97;1.13;;;9.80;94.10;;;;;;5002678;28;20358;-72
2024/01/24 05:57:49;;;;;;;4.00;0.50;;;9.90;93.80;;;;;;5005787;28;20022;-72
2024/01/24 06:00:15;;;;;;;3.50;1.13;;;9.80;94.10;;;;;;4999827;28;20034;-77
2024/01/24 06:02:41;;;;;;;4.50;1.38;;;9.60;95.00;;;;;;5004320;28;20034;-79
2024/01/24 06:05:10;;;;;;;3.40;0.88;;;9.60;95.60;;;;;;5004711;28;20323;-75
2024/01/24 06:07:36;;;;;;;1.60;0.63;;;9.40;96.30;;;;;;5002066;28;20045;-75
2024/01/24 06:10:01;;;;;;;4.75;1.05;;;9.50;96.10;;;;;;5000217;28;20247;-73
2024/01/24 06:12:27;;;;;;;3.53;0.98;;;9.50;96.40;;;;;;4998580;28;20112;-72
2024/01/24 06:14:55;;;;;;;1.67;0.55;;;9.50;95.60;;;;;;4999207;28;20049;-70
2024/01/24 06:17:21;;;;;;;8.68;1.23;;;9.40;95.40;;;;;;5006319;28;20025;-69
2024/01/24 06:19:47;;;;;;;3.53;1.35;;;9.50;94.60;;;;;;5005460;28;20081;-70
2024/01/24 06:22:12;;;;;;;3.45;0.75;;;9.50;94.30;;;;;;5004794;28;20034;-71
2024/01/24 06:24:38;;;;;;;3.00;0.73;;;9.40;94.10;;;;;;4999314;28;20026;-70
2024/01/24 06:27:03;;;;;;;5.20;1.38;;;9.30;94.40;;;;;;4999529;28;20145;-70
2024/01/24 06:29:29;;;;;;;4.28;1.27;;;9.30;93.80;;;;;;5001285;28;20034;-72
2024/01/24 06:31:55;;;;;;;3.13;0.95;;;9.30;93.90;;;;;;4997949;28;20030;-70
2024/01/24 06:34:21;;;;;;;3.97;1.08;;;9.30;93.60;;;;;;5002199;28;20141;-70
2024/01/24 06:36:47;;;;;;;4.20;0.95;;;9.40;93.10;;;;;;4998270;28;20101;-71
2024/01/24 06:39:13;;;;;;;3.85;1.38;;;9.40;92.80;;;;;;4992957;28;20156;-70
2024/01/24 06:41:38;;;;;;;3.40;1.05;;;9.50;92.40;;;;;;5006576;28;20109;-70
2024/01/24 06:44:05;;;;;;;7.80;1.42;;;9.40;92.10;;;;;;4996016;28;20057;-71
2024/01/24 06:46:31;;;;;;;5.70;1.70;;;9.40;92.40;;;;;;4996099;28;20161;-70
2024/01/24 06:48:56;;;;;;;3.72;0.95;;;9.60;91.20;;;;;;4999313;28;20034;-70
2024/01/24 06:51:22;;;;;;;5.13;1.10;;;9.80;90.00;;;;;;4998864;28;20410;-71
2024/01/24 06:53:47;;;;;;;3.22;0.70;;;9.60;90.40;;;;;;4999197;28;20042;-71
2024/01/24 06:56:13;;;;;;;9.18;1.65;;;9.60;89.90;;;;;;5000792;28;20064;-71
2024/01/24 06:58:40;;;;;;;4.63;0.98;;;9.80;89.20;;;;;;5002172;28;20057;-71
2024/01/24 07:01:05;;;;;;;1.75;0.80;;;9.60;90.00;;;;;;4990769;28;20109;-72
2024/01/24 07:03:31;;;;;;;5.18;0.95;;;9.80;89.10;;;;;;5002260;28;20405;-70
2024/01/24 07:05:56;;;;;;;3.13;1.25;;;9.60;90.00;;;;;;5004100;28;21158;-71
2024/01/24 07:08:23;;;;;;;5.25;1.58;;;9.60;90.60;;;;;;4995210;28;20117;-71
2024/01/24 07:10:48;;;;;;;3.90;1.13;;;9.80;89.20;;;;;;5007156;28;20080;-70
2024/01/24 07:13:14;;;;;;;4.43;1.27;;;9.70;89.60;;;;;;5003125;28;20041;-71
2024/01/24 07:15:39;;;;;;;3.65;1.23;;;9.70;89.70;;;;;;5005380;28;20040;-71
2024/01/24 07:18:05;;;;;;;3.85;0.93;;;9.60;90.40;;;;;;4995823;28;20114;-71
2024/01/24 07:20:30;;;;;;;3.47;0.82;;;9.70;90.30;;;;;;5005883;28;20030;-70
2024/01/24 07:22:56;;;;;;;7.80;1.52;;;9.60;90.70;;;;;;5001125;28;20045;-70
2024/01/24 07:25:21;;;;;;;4.97;1.52;;;9.60;91.20;;;;;;5008969;28;20476;-70
2024/01/24 07:27:50;;;;;;;4.40;1.30;;;9.50;92.10;;;;;;5004597;28;20228;-71
2024/01/24 07:30:16;;;;;;;2.13;0.82;;;9.30;93.20;;;;;;5000303;28;20362;-70
2024/01/24 07:32:42;;;;;;;3.35;1.40;;;9.30;93.10;;;;;;5005636;28;20121;-70
2024/01/24 07:35:09;;;;;;;5.32;0.90;;;9.20;93.20;;;;;;5000215;28;20038;-71
2024/01/24 07:37:34;;;;;;;8.63;1.73;;;9.30;92.70;;;;;;4996129;28;20144;-71
2024/01/24 07:40:00;;;;;;;9.65;2.30;;;9.30;92.60;;;;;;5001139;28;20121;-73
2024/01/24 07:42:26;;;;;;;3.80;1.08;;;9.40;91.70;;;;;;5008261;28;20058;-70
2024/01/24 07:44:51;;;;;;;11.02;1.48;;;9.30;91.80;;;;;;4999610;28;20113;-72
2024/01/24 07:47:20;;;;;;;5.25;1.10;;;9.40;91.20;;;;;;4998563;28;20042;-72
2024/01/24 07:49:45;;;;;;;9.82;1.40;;;9.40;90.60;;;;;;5031763;28;20029;-69
2024/01/24 07:52:11;;;;;;;8.00;1.98;;;9.40;90.60;;;;;;4994623;28;20458;-70
2024/01/24 07:54:36;;;;;;;2.90;0.88;;;9.50;90.00;;;;;;4998363;28;20335;-70
2024/01/24 07:57:03;;;;;;;5.40;0.98;;;9.40;90.50;;;;;;5003135;28;20394;-70
2024/01/24 07:59:29;;;;;;;7.47;1.83;;;9.60;88.50;;;;;;5003205;28;20030;-72
2024/01/24 08:01:55;;;;;;;4.90;1.42;;;9.40;89.50;;;;;;4994031;28;20082;-71
2024/01/24 08:04:20;;;;;;;5.03;1.33;;;9.50;88.90;;;;;;4995088;28;20471;-70
2024/01/24 08:06:47;;;;;;;11.57;1.67;;;9.50;88.70;;;;;;5002061;28;20111;-70
2024/01/24 08:09:13;;;;;;;7.05;1.45;;;9.50;88.30;;;;;;4998173;28;20030;-71
2024/01/24 08:11:38;;;;;;;8.95;2.13;;;9.40;88.50;;;;;;4988710;28;20042;-71
2024/01/24 08:14:04;;;;;;;4.38;1.20;;;9.60;87.30;;;;;;4997855;28;20125;-69
2024/01/24 08:16:29;;;;;;;5.60;1.88;;;9.50;88.00;;;;;;4992806;28;20125;-70
2024/01/24 08:18:56;;;;;;;5.65;1.48;;;9.60;87.10;;;;;;5006036;28;20021;-70
2024/01/24 08:21:22;;;;;;;13.63;1.65;;;9.50;86.70;;;;;;4999027;28;20335;-70
2024/01/24 08:23:47;;;;;;;5.05;1.50;;;9.60;86.30;;;;;;4995592;28;20072;-70
2024/01/24 08:26:12;;;;;;;11.57;2.38;;;9.60;86.40;;;;;;4992628;28;20049;-70
2024/01/24 08:28:39;;;;;;;7.22;2.40;;;9.60;85.60;;;;;;5004940;28;20067;-70
2024/01/24 08:31:05;;;;;;;3.30;1.10;;;9.60;85.40;;;;;;5006461;28;20029;-71
2024/01/24 08:33:32;;;;;;;5.47;1.30;;;9.50;86.20;;;;;;5008317;28;20095;-70
2024/01/24 08:35:58;;;;;;;4.60;1.25;;;9.40;86.50;;;;;;5002183;28;20072;-70
2024/01/24 08:38:23;;;;;;;6.65;1.25;;;9.50;85.90;;;;;;4996866;28;20054;-72
2024/01/24 08:40:49;;;;;;;6.45;1.83;;;9.60;84.90;;;;;;4996982;28;20422;-71
2024/01/24 08:43:14;;;;;;;5.03;2.58;;;9.40;86.10;;;;;;5003629;28;20077;-70
2024/01/24 08:45:39;;;;;;;4.72;1.45;;;9.50;85.40;;;;;;4998499;28;20130;-71
2024/01/24 08:48:06;;;;;;;8.63;2.47;;;9.60;84.40;;;;;;4999570;28;20121;-72
2024/01/24 08:50:32;;;;;;;6.47;1.60;;;9.60;84.30;;;;;;5006443;28;20022;-72
2024/01/24 08:52:57;;;;;;;13.40;2.20;;;9.50;85.10;;;;;;4992839;28;20033;-70
2024/01/24 08:55:23;;;;;;;4.90;1.63;;;9.60;83.70;;;;;;4996521;28;20121;-69
2024/01/24 08:57:49;;;;;;;6.05;2.03;;;9.60;83.90;;;;;;5023486;28;20026;-72
2024/01/24 09:00:15;;;;;;;7.05;2.08;;;9.60;83.60;;;;;;4995722;28;20045;-70
2024/01/24 09:02:40;;;;;;;4.05;1.42;;;9.60;83.80;;;;;;5000670;28;20350;-73
2024/01/24 09:05:08;;;;;;;8.98;2.33;;;9.60;83.90;;;;;;4998665;28;20413;-70
2024/01/24 09:07:34;;;;;;;7.05;1.63;;;9.60;83.80;;;;;;5000556;28;20212;-70
2024/01/24 09:09:59;;;;;;;3.90;1.10;;;9.50;84.60;;;;;;5002681;28;20145;-70
2024/01/24 09:12:25;;;;;;;10.10;1.50;;;9.50;84.10;;;;;;4998076;28;20036;-70
2024/01/24 09:14:50;;;;;;;6.25;1.83;;;9.60;82.90;;;;;;5001350;28;20034;-70
2024/01/24 09:17:17;;;;;;;7.80;1.65;;;9.60;82.60;;;;;;4994071;28;20034;-70
2024/01/24 09:19:43;;;;;;;5.20;1.48;;;9.50;82.90;;;;;;5001965;28;20106;-69
2024/01/24 09:22:09;;;;;;;4.05;1.70;;;9.60;82.60;;;;;;5004709;28;20383;-70
2024/01/24 09:24:35;;;;;;;6.40;1.42;;;9.60;82.70;;;;;;5000910;28;20029;-70
2024/01/24 09:27:02;;;;;;;3.80;1.35;;;9.70;81.80;;;;;;5024585;28;20136;-70
2024/01/24 09:29:28;;;;;;;6.45;1.83;;;9.60;82.80;;;;;;5012726;28;20364;-72
2024/01/24 09:31:53;;;;;;;10.18;1.70;;;9.80;80.50;;;;;;4995957;28;20117;-70
2024/01/24 09:34:19;;;;;;;9.40;2.03;;;9.60;82.00;;;;;;4996888;28;20216;-70
2024/01/24 09:36:45;;;;;;;6.00;1.52;;;9.60;81.90;;;;;;4988066;28;20030;-72
2024/01/24 09:39:11;;;;;;;5.22;1.50;;;9.60;82.70;;;;;;4994225;28;20033;-70
2024/01/24 09:41:41;;;;;;;5.93;2.08;;;9.60;82.10;;;;;;4996375;28;20101;-69
2024/01/24 09:44:08;;;;;;;7.20;1.27;;;9.60;81.60;;;;;;5002018;28;20577;-70
2024/01/24 09:46:35;;;;;;;6.05;1.35;;;9.60;81.60;;;;;;5005786;28;20029;-70
2024/01/24 09:49:01;;;;;;;10.32;1.88;;;9.60;81.90;;;;;;5003102;28;20048;-70
2024/01/24 09:51:30;;;;;;;7.45;1.63;;;9.60;81.80;;;;;;4996609;28;20126;-70
2024/01/24 09:53:59;;;;;;;5.65;1.58;;;9.60;82.00;;;;;;5008891;28;20136;-70
2024/01/24 09:56:25;;;;;;;6.63;1.63;;;9.70;81.30;;;;;;5004198;28;20127;-70
2024/01/24 09:58:51;;;;;;;7.03;1.17;;;9.80;80.80;;;;;;5006793;28;20061;-70
2024/01/24 10:01:18;;;;;;;7.93;1.45;;;9.80;80.60;;;;;;4993621;28;20050;-70
2024/01/24 10:03:45;;;;;;;13.95;1.60;;;9.70;81.40;;;;;;5004376;28;20023;-72
2024/01/24 10:06:12;;;;;;;8.98;1.52;;;9.70;80.80;;;;;;5000227;28;20049;-69
2024/01/24 10:08:38;;;;;;;5.78;1.63;;;9.90;80.20;;;;;;5003383;28;20049;-71
2024/01/24 10:11:04;;;;;;;9.02;1.65;;;9.80;80.60;;;;;;5006964;28;20030;-69
2024/01/24 10:13:30;;;;;;;1.90;0.88;;;9.80;80.10;;;;;;5002420;28;20056;-69
2024/01/24 10:15:56;;;;;;;6.72;1.48;;;9.90;79.90;;;;;;5004477;28;20031;-69
2024/01/24 10:18:23;;;;;;;2.05;1.40;;;9.90;78.90;;;;;;5002840;28;20048;-70
2024/01/24 10:20:49;;;;;;;8.88;1.38;;;9.90;79.80;;;;;;5006182;28;20175;-70
2024/01/24 10:23:15;;;;;;;3.00;1.40;;;9.90;80.00;;;;;;4997476;28;20030;-69
2024/01/24 10:25:41;;;;;;;6.80;1.38;;;9.80;80.10;;;;;;5016850;28;20030;-69
2024/01/24 10:28:13;;;;;;;5.50;1.42;;;9.90;80.40;;;;;;5018359;28;20474;-70
2024/01/24 10:30:42;;;;;;;5.68;1.23;;;10.00;79.20;;;;;;4997953;28;20117;-70
2024/01/24 10:33:12;;;;;;;7.20;1.50;;;9.90;79.80;;;;;;5002710;28;20312;-69
2024/01/24 10:35:38;;;;;;;5.03;1.55;;;9.80;80.00;;;;;;5005051;28;20390;-70
2024/01/24 10:38:05;;;;;;;5.82;1.25;;;9.80;79.90;;;;;;4998044;28;20542;-70
2024/01/24 10:40:31;;;;;;;2.28;0.77;;;9.90;79.70;;;;;;4993115;28;20183;-70
2024/01/24 10:43:05;;;;;;;8.02;2.05;;;9.80;79.70;;;;;;5005105;28;20084;-70
2024/01/24 10:45:31;;;;;;;8.57;1.30;;;9.90;79.50;;;;;;5000750;28;20065;-72
2024/01/24 10:48:01;;;;;;;6.68;1.13;;;9.90;79.50;;;;;;5010672;28;20117;-69
2024/01/24 10:50:27;;;;;;;6.88;1.67;;;9.90;79.20;;;;;;4995800;28;20042;-69
2024/01/24 10:52:53;;;;;;;6.00;1.63;;;9.80;79.80;;;;;;4998857;28;20431;-70
2024/01/24 10:55:21;;;;;;;7.05;1.92;;;9.80;80.40;;;;;;4999803;28;20053;-69
2024/01/24 10:57:48;;;;;;;4.95;1.08;;;9.70;80.00;;;;;;4999351;28;20037;-70
2024/01/24 11:00:17;;;;;;;7.07;1.40;;;9.80;79.90;;;;;;4992713;28;20034;-69
2024/01/24 11:02:43;;;;;;;4.68;1.65;;;9.80;79.60;;;;;;5004600;28;20066;-70
2024/01/24 11:05:14;;;;;;;5.68;1.60;;;9.70;80.50;;;;;;5006162;28;20061;-69
2024/01/24 11:07:54;;;;;;;8.77;1.83;;;9.70;79.80;;;;;;5001340;28;20026;-70
2024/01/24 11:10:25;;;;;;;5.32;1.45;;;9.80;79.60;;;;;;4999756;28;20034;-69
2024/01/24 11:12:51;;;;;;;7.38;1.40;;;9.80;79.60;;;;;;5003585;28;20030;-70
2024/01/24 11:15:16;;;;;;;4.63;1.13;;;9.70;79.90;;;;;;5002354;28;20041;-70
2024/01/24 11:17:46;;;;;;;4.57;1.15;;;9.80;79.20;;;;;;4997151;28;20486;-69
2024/01/24 11:20:12;;;;;;;8.27;1.60;;;9.80;79.40;;;;;;4997842;28;20064;-69
2024/01/24 11:22:38;;;;;;;6.63;1.77;;;9.80;79.90;;;;;;5002514;28;20136;-69
2024/01/24 11:25:04;;;;;;;2.88;0.95;;;9.80;79.20;;;;;;5001718;28;20148;-70
2024/01/24 11:27:34;;;;;;;7.18;1.80;;;9.80;79.20;;;;;;5004479;28;20439;-70
2024/01/24 11:30:11;;;;;;;8.40;1.42;;;9.80;79.50;;;;;;4993229;28;20149;-70
2024/01/24 11:32:47;;;;;;;7.13;2.17;;;9.80;80.00;;;;;;5001128;28;20031;-69
2024/01/24 11:35:31;;;;;;;2.88;1.20;;;9.60;82.00;;;;;;5002205;28;20029;-70
2024/01/24 11:38:19;;;;;;;2.72;0.80;;;9.40;83.20;;;;;;4994944;28;20423;-69
2024/01/24 11:40:44;;;;;;;5.40;0.98;;;9.30;83.60;;;;;;4994199;28;20036;-69
2024/01/24 11:43:26;;;;;;;14.65;2.17;;;9.20;84.20;;;;;;5001624;28;20034;-69
2024/01/24 11:46:03;;;;;;;4.53;1.35;;;9.20;84.40;;;;;;4994993;28;20124;-70
2024/01/24 11:48:31;;;;;;;5.60;1.10;;;8.90;87.60;;;;;;5001350;28;20362;-69
2024/01/24 11:51:05;;;;;;;6.65;1.45;;;8.70;88.70;;;;;;4992424;28;20478;-70
2024/01/24 11:53:30;;;;;;;5.07;0.75;;;8.50;90.90;;;;;;4997843;28;20029;-70
2024/01/24 11:55:56;;;;;;;3.10;1.45;;;8.50;89.80;;;;;;5004785;28;20377;-70
2024/01/24 11:58:25;;;;;;;5.75;1.05;;;8.40;90.70;;;;;;5005936;28;20363;-69
2024/01/24 12:01:00;;;;;;;8.02;1.77;;;8.40;90.40;;;;;;5001043;28;20133;-70
2024/01/24 12:03:26;;;;;;;4.07;1.33;;;8.30;91.40;;;;;;4997211;28;20425;-69
2024/01/24 12:05:52;;;;;;;5.78;1.60;;;8.50;89.40;;;;;;4991293;28;20045;-70
2024/01/24 12:08:18;;;;;;;8.32;1.70;;;8.50;89.60;;;;;;4998339;28;20375;-69
2024/01/24 12:10:43;;;;;;;6.93;1.80;;;8.60;89.10;;;;;;4996887;28;20038;-69
2024/01/24 12:13:09;;;;;;;3.17;1.10;;;8.60;89.40;;;;;;5005663;28;20076;-69
2024/01/24 12:15:35;;;;;;;9.63;1.42;;;8.50;89.70;;;;;;4993273;28;20026;-69
2024/01/24 12:18:05;;;;;;;5.30;2.22;;;8.40;90.60;;;;;;4995628;28;20496;-70
2024/01/24 12:20:32;;;;;;;6.10;2.17;;;8.40;90.90;;;;;;4997707;28;20068;-71
2024/01/24 12:22:58;;;;;;;6.45;1.38;;;8.30;91.90;;;;;;5001207;28;20046;-70
2024/01/24 12:25:25;;;;;;;6.05;1.05;;;8.30;91.40;;;;;;5001174;28;20399;-69
2024/01/24 12:27:50;;;;;;;3.13;1.13;;;8.30;91.40;;;;;;5004415;28;20339;-69
2024/01/24 12:30:16;;;;;;;4.47;1.58;;;8.20;92.70;;;;;;4996272;28;20038;-69
2024/01/24 12:32:41;;;;;;;7.57;1.27;;;8.30;91.30;;;;;;4999371;28;20030;-70
2024/01/24 12:35:07;;;;;;;4.43;1.27;;;8.30;90.90;;;;;;4988471;28;20137;-69
2024/01/24 12:37:36;;;;;;;7.03;1.27;;;8.40;89.80;;;;;;4992564;28;20044;-69
2024/01/24 12:40:07;;;;;;;17.42;1.73;;;8.40;90.30;;;;;;4997818;28;20113;-69
2024/01/24 12:42:33;;;;;;;;;;;8.50;89.40;;;;;;4990769;28;20046;-69
2024/01/24 12:44:58;;;;;;;6.97;1.30;;;8.60;88.50;;;;;;4994901;28;19909;-69
2024/01/24 12:47:24;;;;;;;5.10;1.50;;;8.50;89.30;;;;;;4991770;28;20026;-69